createdAt,value
2022-11-26T00:02:22.671Z,27.13
2022-11-26T00:04:51.714Z,27.77
2022-11-26T00:07:24.144Z,33.05
2022-11-26T00:09:54.073Z,33.08
2022-11-26T00:12:25.118Z,27.15
2022-11-26T00:14:53.594Z,27.73
2022-11-26T00:17:23.802Z,31.90
2022-11-26T00:19:51.977Z,32.17
2022-11-26T00:22:27.399Z,35.88
2022-11-26T00:24:56.346Z,30.55
2022-11-26T00:27:27.690Z,34.30
2022-11-26T00:29:56.648Z,30.52
2022-11-26T00:32:27.550Z,39.55
2022-11-26T00:34:55.866Z,39.70
2022-11-26T00:37:27.208Z,36.67
2022-11-26T00:39:55.935Z,52.63
2022-11-26T00:42:24.374Z,45.95
2022-11-26T00:44:52.693Z,37.20
2022-11-26T00:47:21.113Z,35.67
2022-11-26T00:49:53.097Z,32.88
2022-11-26T00:52:29.616Z,31.45
2022-11-26T00:54:57.815Z,29.27
2022-11-26T00:57:26.121Z,33.45
2022-11-26T00:59:54.430Z,35.67
2022-11-26T01:02:22.940Z,31.83
2022-11-26T01:04:52.867Z,31.80
2022-11-26T01:07:21.245Z,31.05
2022-11-26T01:09:51.263Z,28.75
2022-11-26T01:12:19.648Z,26.52
2022-11-26T01:14:47.706Z,31.00
2022-11-26T01:17:15.703Z,29.75
2022-11-26T01:19:43.698Z,27.98
2022-11-26T01:22:21.458Z,31.73
2022-11-26T01:24:50.334Z,30.83
2022-11-26T01:27:21.037Z,29.70
2022-11-26T01:29:49.181Z,26.55
2022-11-26T01:32:17.144Z,33.30
2022-11-26T01:34:45.210Z,29.50
2022-11-26T01:37:15.637Z,24.58
2022-11-26T01:39:43.744Z,21.48
2022-11-26T01:42:25.713Z,22.20
2022-11-26T01:44:55.077Z,23.90
2022-11-26T01:47:25.525Z,16.52
2022-11-26T01:50:31.090Z,19.65
2022-11-26T01:53:03.623Z,19.60
2022-11-26T01:55:37.252Z,18.70
2022-11-26T01:58:08.609Z,21.83
2022-11-26T02:00:36.638Z,19.92
2022-11-26T02:03:05.943Z,15.93
2022-11-26T02:05:41.027Z,13.95
2022-11-26T02:08:13.865Z,11.93
2022-11-26T02:10:42.532Z,22.25
2022-11-26T02:13:10.582Z,14.93
2022-11-26T02:15:46.179Z,14.43
2022-11-26T02:18:14.551Z,15.10
2022-11-26T02:20:52.408Z,13.93
2022-11-26T02:23:51.232Z,15.20
2022-11-26T02:26:52.753Z,16.50
2022-11-26T02:29:26.892Z,10.70
2022-11-26T02:32:01.878Z,13.98
2022-11-26T02:34:40.345Z,14.10
2022-11-26T02:37:14.636Z,13.43
2022-11-26T02:39:42.956Z,11.90
2022-11-26T02:42:26.178Z,13.32
2022-11-26T02:44:59.260Z,12.95
2022-11-26T02:50:00.635Z,13.30
2022-11-26T02:52:30.774Z,14.70
2022-11-26T02:55:00.019Z,14.30
2022-11-26T02:57:32.462Z,17.15
2022-11-26T03:00:00.476Z,14.50
2022-11-26T03:02:38.347Z,14.00
2022-11-26T03:05:09.168Z,14.38
2022-11-26T03:07:38.755Z,16.05
2022-11-26T03:10:08.618Z,13.70
2022-11-26T03:12:36.937Z,10.95
2022-11-26T03:15:05.448Z,13.50
2022-11-26T03:17:35.787Z,16.73
2022-11-26T03:20:04.819Z,12.10
2022-11-26T03:22:33.046Z,11.98
2022-11-26T03:25:01.454Z,16.95
2022-11-26T03:27:29.368Z,11.07
2022-11-26T03:29:58.001Z,14.25
2022-11-26T03:32:26.446Z,14.82
2022-11-26T03:34:56.059Z,11.15
2022-11-26T03:37:24.135Z,13.20
2022-11-26T03:39:52.398Z,16.45
2022-11-26T03:42:20.391Z,14.27
2022-11-26T03:44:49.065Z,16.33
2022-11-26T03:47:17.084Z,14.55
2022-11-26T03:49:45.498Z,12.93
2022-11-26T03:52:15.163Z,13.25
2022-11-26T03:54:43.453Z,12.50
2022-11-26T03:57:11.515Z,13.52
2022-11-26T03:59:39.830Z,16.58
2022-11-26T04:02:07.863Z,15.25
2022-11-26T04:04:36.754Z,13.45
2022-11-26T04:07:06.232Z,17.60
2022-11-26T04:09:35.952Z,14.77
2022-11-26T04:12:04.043Z,14.38
2022-11-26T04:14:32.302Z,16.70
2022-11-26T04:17:00.624Z,20.52
2022-11-26T04:19:28.972Z,14.57
2022-11-26T04:21:56.906Z,15.07
2022-11-26T04:24:24.986Z,15.80
2022-11-26T04:26:54.661Z,20.63
2022-11-26T04:29:22.702Z,20.23
2022-11-26T04:31:51.390Z,14.35
2022-11-26T04:34:19.406Z,14.73
2022-11-26T04:36:51.197Z,14.40
2022-11-26T04:39:24.558Z,17.17
2022-11-26T04:44:25.710Z,21.15
2022-11-26T04:46:54.905Z,17.55
2022-11-26T04:49:23.493Z,13.45
2022-11-26T04:51:51.972Z,21.00
2022-11-26T04:54:21.831Z,17.98
2022-11-26T04:56:51.365Z,18.38
2022-11-26T04:59:19.641Z,17.83
2022-11-26T05:01:51.012Z,19.67
2022-11-26T05:04:21.814Z,17.15
2022-11-26T05:06:50.331Z,14.57
2022-11-26T05:09:22.309Z,17.60
2022-11-26T05:11:50.529Z,15.65
2022-11-26T05:14:20.553Z,23.00
2022-11-26T05:16:51.255Z,18.42
2022-11-26T05:19:21.407Z,17.88
2022-11-26T05:21:52.299Z,18.10
2022-11-26T05:24:24.867Z,17.15
2022-11-26T05:26:57.373Z,23.05
2022-11-26T05:29:26.217Z,21.05
2022-11-26T05:31:55.513Z,19.17
2022-11-26T05:34:24.407Z,18.92
2022-11-26T05:36:53.434Z,17.83
2022-11-26T05:39:22.166Z,15.63
2022-11-26T05:41:53.761Z,26.38
2022-11-26T05:44:22.017Z,20.98
2022-11-26T05:46:50.115Z,18.38
2022-11-26T05:49:20.609Z,20.80
2022-11-26T05:51:49.514Z,16.70
2022-11-26T05:54:21.088Z,22.58
2022-11-26T05:56:56.911Z,18.52
2022-11-26T05:59:31.412Z,25.50
2022-11-26T06:02:00.761Z,19.95
2022-11-26T06:04:32.028Z,24.52
2022-11-26T06:07:10.466Z,20.15
2022-11-26T06:09:39.917Z,24.33
2022-11-26T06:12:11.646Z,22.80
2022-11-26T06:14:43.869Z,17.00
2022-11-26T06:17:21.097Z,26.05
2022-11-26T06:19:54.633Z,22.05
2022-11-26T06:22:30.293Z,17.17
2022-11-26T06:24:59.555Z,18.60
2022-11-26T06:27:32.436Z,19.13
2022-11-26T06:32:45.262Z,19.00
2022-11-26T06:35:23.608Z,22.15
2022-11-26T06:37:55.982Z,20.35
2022-11-26T06:40:26.477Z,22.77
2022-11-26T06:43:02.129Z,23.08
2022-11-26T06:45:40.286Z,18.83
2022-11-26T06:48:25.046Z,23.30
2022-11-26T06:50:56.325Z,19.63
2022-11-26T06:53:26.122Z,22.98
2022-11-26T06:55:58.091Z,19.80
2022-11-26T06:58:33.365Z,21.05
2022-11-26T07:01:05.702Z,26.90
2022-11-26T07:03:36.713Z,25.40
2022-11-26T07:06:22.426Z,30.75
2022-11-26T07:09:04.658Z,30.02
2022-11-26T07:11:43.897Z,30.15
2022-11-26T07:14:17.679Z,28.17
2022-11-26T07:16:50.860Z,25.08
2022-11-26T07:19:25.700Z,18.52
2022-11-26T07:22:01.031Z,30.23
2022-11-26T07:24:31.908Z,23.77
2022-11-26T07:27:21.335Z,24.17
2022-11-26T07:30:09.046Z,23.45
2022-11-26T07:32:41.501Z,22.38
2022-11-26T07:35:10.046Z,23.98
2022-11-26T07:37:50.583Z,24.92
2022-11-26T07:40:20.170Z,22.02
2022-11-26T07:42:53.176Z,22.08
2022-11-26T07:45:24.468Z,25.05
2022-11-26T07:47:56.151Z,18.67
2022-11-26T07:50:30.839Z,24.48
2022-11-26T07:53:01.258Z,17.52
2022-11-26T07:55:30.512Z,21.52
2022-11-26T07:58:02.071Z,20.00
2022-11-26T08:00:30.285Z,16.65
2022-11-26T08:02:58.532Z,21.50
2022-11-26T08:05:26.761Z,15.60
2022-11-26T08:07:58.071Z,24.60
2022-11-26T08:10:31.948Z,16.85
2022-11-26T08:13:00.114Z,21.33
2022-11-26T08:15:33.558Z,21.83
2022-11-26T08:18:03.443Z,18.95
2022-11-26T08:20:34.107Z,18.92
2022-11-26T08:23:02.276Z,20.15
2022-11-26T08:25:32.219Z,27.25
2022-11-26T08:28:03.174Z,24.00
2022-11-26T08:30:31.402Z,23.63
2022-11-26T08:32:59.534Z,25.15
2022-11-26T08:36:05.499Z,22.08
2022-11-26T08:38:33.289Z,24.88
2022-11-26T08:41:10.956Z,20.38
2022-11-26T08:44:05.129Z,18.90
2022-11-26T08:46:28.626Z,23.38
2022-11-26T08:48:57.610Z,22.10
2022-11-26T08:51:26.147Z,24.10
2022-11-26T08:53:54.941Z,26.25
2022-11-26T08:56:27.321Z,16.23
2022-11-26T08:58:55.650Z,19.35
2022-11-26T09:01:26.513Z,19.05
2022-11-26T09:04:00.159Z,18.95
2022-11-26T09:06:31.270Z,18.90
2022-11-26T09:09:14.516Z,21.17
2022-11-26T09:11:50.223Z,17.30
2022-11-26T09:14:21.653Z,21.73
2022-11-26T09:16:50.068Z,13.07
2022-11-26T09:19:19.328Z,15.98
2022-11-26T09:21:50.088Z,21.38
2022-11-26T09:24:19.608Z,14.02
2022-11-26T09:26:50.929Z,13.43
2022-11-26T09:29:21.581Z,12.20
2022-11-26T09:34:40.820Z,14.52
2022-11-26T09:37:09.576Z,12.57
2022-11-26T09:39:39.036Z,16.92
2022-11-26T09:42:22.523Z,13.32
2022-11-26T09:45:15.384Z,19.05
2022-11-26T09:47:50.725Z,16.25
2022-11-26T09:50:27.068Z,12.90
2022-11-26T09:53:00.006Z,12.50
2022-11-26T09:55:33.478Z,13.23
2022-11-26T09:58:13.932Z,12.20
2022-11-26T10:00:47.785Z,11.68
2022-11-26T10:03:18.736Z,15.50
2022-11-26T10:05:52.947Z,12.73
2022-11-26T10:08:36.298Z,13.57
2022-11-26T10:13:45.639Z,13.43
2022-11-26T10:16:26.376Z,13.55
2022-11-26T10:19:03.259Z,14.50
2022-11-26T10:21:58.298Z,12.88
2022-11-26T10:24:30.383Z,13.88
2022-11-26T10:27:11.651Z,14.15
2022-11-26T10:29:44.190Z,15.88
2022-11-26T10:32:17.427Z,17.48
2022-11-26T10:34:52.069Z,16.58
2022-11-26T10:37:22.430Z,11.93
2022-11-26T10:39:56.774Z,13.35
2022-11-26T10:42:27.324Z,12.75
2022-11-26T10:44:57.054Z,12.40
2022-11-26T10:47:28.317Z,11.43
2022-11-26T10:53:07.689Z,11.35
2022-11-26T10:58:15.702Z,10.48
2022-11-26T11:00:55.488Z,18.58
2022-11-26T11:03:51.832Z,22.67
2022-11-26T11:06:28.900Z,16.15
2022-11-26T11:08:56.847Z,15.70
2022-11-26T11:11:26.839Z,15.35
2022-11-26T11:13:55.814Z,12.98
2022-11-26T11:16:29.902Z,16.73
2022-11-26T11:19:02.470Z,12.35
2022-11-26T11:21:34.847Z,12.05
2022-11-26T11:24:14.711Z,14.13
2022-11-26T11:26:45.214Z,12.68
2022-11-26T11:29:27.732Z,15.55
2022-11-26T11:31:58.966Z,12.57
2022-11-26T11:34:31.640Z,13.60
2022-11-26T11:37:01.497Z,13.40
2022-11-26T11:39:31.659Z,16.95
2022-11-26T11:42:02.404Z,10.43
2022-11-26T11:44:39.645Z,20.65
2022-11-26T11:47:25.252Z,16.83
2022-11-26T11:50:13.403Z,14.80
2022-11-26T11:52:49.332Z,19.52
2022-11-26T11:55:26.641Z,19.88
2022-11-26T11:58:24.173Z,13.80
2022-11-26T12:00:57.103Z,14.82
2022-11-26T12:03:49.937Z,13.40
2022-11-26T12:06:24.984Z,12.82
2022-11-26T12:09:04.194Z,13.73
2022-11-26T12:11:41.465Z,13.57
2022-11-26T12:14:19.138Z,12.70
2022-11-26T12:16:50.379Z,13.85
2022-11-26T12:19:29.086Z,12.18
2022-11-26T12:22:02.813Z,16.20
2022-11-26T12:24:40.592Z,13.85
2022-11-26T12:27:17.743Z,15.55
2022-11-26T12:29:50.829Z,18.70
2022-11-26T12:34:53.120Z,17.15
2022-11-26T12:37:24.614Z,13.98
2022-11-26T12:39:58.168Z,14.43
2022-11-26T12:42:31.644Z,15.27
2022-11-26T12:45:17.403Z,17.17
2022-11-26T12:47:53.513Z,14.38
2022-11-26T12:50:35.067Z,13.65
2022-11-26T12:53:16.608Z,14.52
2022-11-26T12:55:50.413Z,17.88
2022-11-26T12:58:22.350Z,18.67
2022-11-26T13:00:54.107Z,15.73
2022-11-26T13:03:30.888Z,16.00
2022-11-26T13:06:04.960Z,15.40
2022-11-26T13:08:47.387Z,13.80
2022-11-26T13:11:31.780Z,16.43
2022-11-26T13:14:09.388Z,17.15
2022-11-26T13:16:45.811Z,12.32
2022-11-26T13:19:21.537Z,14.82
2022-11-26T13:22:16.576Z,17.05
2022-11-26T13:25:03.022Z,13.13
2022-11-26T13:27:50.008Z,17.75
2022-11-26T13:30:22.621Z,13.07
2022-11-26T13:33:16.840Z,18.38
2022-11-26T13:36:26.390Z,15.18
2022-11-26T13:39:10.579Z,17.35
2022-11-26T13:41:59.889Z,18.55
2022-11-26T13:44:59.820Z,12.85
2022-11-26T13:47:33.041Z,10.88
2022-11-26T13:50:05.746Z,13.10
2022-11-26T13:52:44.269Z,13.77
2022-11-26T13:55:21.000Z,14.05
2022-11-26T13:57:55.219Z,14.85
2022-11-26T14:00:28.788Z,17.10
2022-11-26T14:02:57.931Z,14.40
2022-11-26T14:06:08.201Z,14.88
2022-11-26T14:08:38.390Z,13.70
2022-11-26T14:11:08.504Z,12.55
2022-11-26T14:13:36.554Z,20.60
2022-11-26T14:16:07.768Z,17.45
2022-11-26T14:19:01.471Z,15.35
2022-11-26T14:24:00.943Z,17.58
2022-11-26T14:26:34.514Z,16.10
2022-11-26T14:29:13.213Z,16.90
2022-11-26T14:31:47.494Z,22.50
2022-11-26T14:34:21.055Z,17.08
2022-11-26T14:36:56.529Z,17.80
2022-11-26T14:39:25.183Z,21.50
2022-11-26T14:42:03.781Z,23.33
2022-11-26T14:44:34.623Z,23.15
2022-11-26T14:47:10.931Z,16.65
2022-11-26T14:49:41.632Z,22.55
2022-11-26T14:52:19.458Z,21.98
2022-11-26T14:54:50.277Z,13.75
2022-11-26T14:57:24.827Z,13.55
2022-11-26T14:59:57.630Z,22.02
2022-11-26T15:02:28.026Z,14.07
2022-11-26T15:05:01.003Z,19.75
2022-11-26T15:07:30.499Z,18.92
2022-11-26T15:10:04.051Z,21.98
2022-11-26T15:12:35.033Z,21.02
2022-11-26T15:15:05.523Z,21.70
2022-11-26T15:17:35.407Z,19.98
2022-11-26T15:20:08.270Z,13.95
2022-11-26T15:22:39.380Z,19.98
2022-11-26T15:25:15.521Z,19.95
2022-11-26T15:27:55.148Z,18.15
2022-11-26T15:30:27.096Z,19.85
2022-11-26T15:33:02.557Z,17.58
2022-11-26T15:35:33.234Z,18.67
2022-11-26T15:38:01.788Z,21.02
2022-11-26T15:40:32.686Z,22.38
2022-11-26T15:43:04.567Z,18.48
2022-11-26T15:45:39.184Z,22.38
2022-11-26T15:48:09.037Z,17.77
2022-11-26T15:50:38.711Z,20.23
2022-11-26T15:53:15.335Z,21.45
2022-11-26T15:55:48.552Z,18.52
2022-11-26T15:58:23.177Z,19.60
2022-11-26T16:00:53.852Z,18.83
2022-11-26T16:03:41.634Z,23.63
2022-11-26T16:06:29.857Z,23.02
2022-11-26T16:09:04.218Z,21.48
2022-11-26T16:11:36.638Z,23.67
2022-11-26T16:14:29.730Z,18.42
2022-11-26T16:17:02.468Z,24.38
2022-11-26T16:19:36.047Z,22.33
2022-11-26T16:22:05.829Z,27.17
2022-11-26T16:24:39.247Z,26.15
2022-11-26T16:27:25.943Z,30.40
2022-11-26T16:29:55.254Z,23.90
2022-11-26T16:32:23.994Z,22.98
2022-11-26T16:34:52.289Z,33.28
2022-11-26T16:37:23.235Z,29.10
2022-11-26T16:39:52.699Z,24.67
2022-11-26T16:42:23.472Z,24.75
2022-11-26T16:44:52.803Z,23.27
2022-11-26T16:47:25.621Z,23.90
2022-11-26T16:49:54.099Z,23.10
2022-11-26T16:52:22.629Z,25.33
2022-11-26T16:54:51.933Z,20.45
2022-11-26T16:57:22.668Z,19.83
2022-11-26T16:59:53.140Z,22.33
2022-11-26T17:02:26.570Z,21.38
2022-11-26T17:04:55.100Z,17.88
2022-11-26T17:07:26.148Z,24.98
2022-11-26T17:09:54.595Z,27.50
2022-11-26T17:12:25.522Z,28.75
2022-11-26T17:14:53.835Z,27.38
2022-11-26T17:17:26.274Z,27.70
2022-11-26T17:19:54.447Z,30.08
2022-11-26T17:22:22.794Z,27.90
2022-11-26T17:24:50.829Z,29.23
2022-11-26T17:27:24.596Z,23.55
2022-11-26T17:29:52.891Z,21.95
2022-11-26T17:32:21.707Z,21.00
2022-11-26T17:34:53.055Z,22.27
2022-11-26T17:37:24.922Z,21.58
2022-11-26T17:39:53.326Z,26.20
2022-11-26T17:42:23.037Z,26.98
2022-11-26T17:44:51.632Z,22.33
2022-11-26T17:47:21.904Z,22.45
2022-11-26T17:49:52.045Z,23.23
2022-11-26T17:52:21.079Z,23.70
2022-11-26T17:54:49.090Z,26.40
2022-11-26T17:57:18.494Z,31.30
2022-11-26T17:59:46.630Z,25.90
2022-11-26T18:02:14.969Z,28.15
2022-11-26T18:04:43.764Z,26.98
2022-11-26T18:07:15.957Z,28.90
2022-11-26T18:09:44.457Z,24.83
2022-11-26T18:12:24.364Z,23.55
2022-11-26T18:14:53.994Z,26.70
2022-11-26T18:17:22.828Z,35.83
2022-11-26T18:19:51.132Z,27.98
2022-11-26T18:22:25.730Z,40.22
2022-11-26T18:24:56.860Z,38.42
2022-11-26T18:27:27.265Z,34.08
2022-11-26T18:29:56.482Z,33.72
2022-11-26T18:32:25.370Z,36.08
2022-11-26T18:34:53.675Z,31.58
2022-11-26T18:37:23.405Z,36.28
2022-11-26T18:39:51.398Z,33.25
2022-11-26T18:42:36.714Z,32.78
2022-11-26T18:45:09.470Z,31.80
2022-11-26T18:47:37.922Z,29.95
2022-11-26T18:50:07.164Z,29.48
2022-11-26T18:52:42.104Z,34.55
2022-11-26T18:55:11.733Z,31.05
2022-11-26T18:57:39.769Z,31.65
2022-11-26T19:00:10.962Z,31.55
2022-11-26T19:02:39.065Z,32.75
2022-11-26T19:05:08.240Z,32.25
2022-11-26T19:07:40.166Z,28.75
2022-11-26T19:10:09.637Z,31.45
2022-11-26T19:12:37.893Z,33.35
2022-11-26T19:15:07.467Z,34.72
2022-11-26T19:17:35.887Z,32.33
2022-11-26T19:20:04.492Z,48.65
2022-11-26T19:22:32.927Z,53.08
2022-11-26T19:25:02.769Z,49.50
2022-11-26T19:27:31.078Z,50.72
2022-11-26T19:29:59.169Z,47.35
2022-11-26T19:32:27.858Z,43.35
2022-11-26T19:34:58.132Z,47.20
2022-11-26T19:37:30.578Z,52.72
2022-11-26T19:39:58.962Z,47.42
2022-11-26T19:42:30.210Z,54.78
2022-11-26T19:44:58.370Z,63.55
2022-11-26T19:47:26.394Z,57.92
2022-11-26T19:49:54.848Z,64.22
2022-11-26T19:52:23.526Z,63.20
2022-11-26T19:54:51.531Z,62.63
2022-11-26T19:57:21.130Z,53.33
2022-11-26T19:59:51.376Z,60.15
2022-11-26T20:02:19.730Z,53.97
2022-11-26T20:04:48.611Z,49.05
2022-11-26T20:07:19.854Z,42.78
2022-11-26T20:09:51.982Z,41.20
2022-11-26T20:12:20.854Z,37.72
2022-11-26T20:14:51.973Z,42.50
2022-11-26T20:17:20.962Z,39.50
2022-11-26T20:19:49.455Z,43.72
2022-11-26T20:22:18.268Z,36.97
2022-11-26T20:24:48.179Z,37.55
2022-11-26T20:27:35.640Z,47.50
2022-11-26T20:30:12.096Z,52.40
2022-11-26T20:32:51.007Z,70.38
2022-11-26T20:35:24.773Z,65.53
2022-11-26T20:37:54.814Z,67.20
2022-11-26T20:40:25.514Z,65.65
2022-11-26T20:43:03.584Z,68.55
2022-11-26T20:45:41.119Z,56.33
2022-11-26T20:48:14.207Z,55.45
2022-11-26T20:50:53.171Z,47.55
2022-11-26T20:53:22.750Z,40.55
2022-11-26T20:55:56.885Z,42.03
2022-11-26T20:58:33.393Z,44.50
2022-11-26T21:01:09.596Z,44.15
2022-11-26T21:03:46.559Z,49.30
2022-11-26T21:06:18.700Z,50.75
2022-11-26T21:08:53.140Z,48.40
2022-11-26T21:11:23.031Z,50.13
2022-11-26T21:13:56.033Z,51.50
2022-11-26T21:19:12.557Z,57.80
2022-11-26T21:21:40.890Z,66.32
2022-11-26T21:24:10.031Z,62.72
2022-11-26T21:26:38.552Z,57.40
2022-11-26T21:29:07.130Z,49.92
2022-11-26T21:31:37.743Z,41.80
2022-11-26T21:34:08.304Z,46.15
2022-11-26T21:36:38.249Z,42.65
2022-11-26T21:39:08.085Z,46.50
2022-11-26T21:41:38.368Z,54.60
2022-11-26T21:44:08.578Z,59.08
2022-11-26T21:46:39.601Z,52.40
2022-11-26T21:49:09.002Z,56.45
2022-11-26T21:51:37.613Z,46.97
2022-11-26T21:54:06.435Z,46.15
2022-11-26T21:56:35.201Z,46.65
2022-11-26T21:59:05.497Z,46.85
2022-11-26T22:01:35.336Z,46.53
2022-11-26T22:04:07.560Z,42.88
2022-11-26T22:06:39.806Z,49.10
2022-11-26T22:09:09.279Z,46.30
2022-11-26T22:11:40.045Z,57.58
2022-11-26T22:14:09.510Z,45.08
2022-11-26T22:16:38.183Z,44.47
2022-11-26T22:19:08.130Z,40.60
2022-11-26T22:21:38.695Z,49.78
2022-11-26T22:24:09.538Z,41.95
2022-11-26T22:26:38.767Z,43.22
2022-11-26T22:29:09.291Z,36.10
2022-11-26T22:31:39.858Z,33.53
2022-11-26T22:34:11.812Z,46.00
2022-11-26T22:36:41.708Z,35.53
2022-11-26T22:39:13.130Z,30.83
2022-11-26T22:41:42.595Z,29.23
2022-11-26T22:44:12.260Z,30.85
2022-11-26T22:46:40.453Z,32.65
2022-11-26T22:49:13.329Z,33.95
2022-11-26T22:51:41.600Z,28.17
2022-11-26T22:54:13.227Z,30.63
2022-11-26T22:56:41.655Z,35.88
2022-11-26T22:59:12.822Z,32.97
2022-11-26T23:01:42.490Z,30.77
2022-11-26T23:04:12.407Z,31.38
2022-11-26T23:06:41.104Z,32.92
2022-11-26T23:09:10.952Z,31.02
2022-11-26T23:11:41.564Z,31.38
2022-11-26T23:14:11.876Z,30.75
2022-11-26T23:16:41.800Z,32.40
2022-11-26T23:19:14.001Z,36.15
2022-11-26T23:21:43.727Z,32.20
2022-11-26T23:24:13.682Z,35.47
2022-11-26T23:26:42.858Z,29.20
2022-11-26T23:29:12.140Z,29.05
2022-11-26T23:31:44.610Z,42.10
2022-11-26T23:34:15.506Z,36.95
2022-11-26T23:36:44.343Z,37.47
2022-11-26T23:39:14.593Z,38.95
2022-11-26T23:41:43.759Z,34.30
2022-11-26T23:44:12.191Z,35.50
2022-11-26T23:46:40.933Z,33.30
2022-11-26T23:49:09.260Z,36.85
2022-11-26T23:51:39.197Z,31.33
2022-11-26T23:54:07.455Z,32.22
2022-11-26T23:56:36.832Z,29.95
2022-11-26T23:59:06.235Z,36.83
